createdAt,value
2023-02-27T00:01:35.181Z,13.62
2023-02-27T00:04:03.598Z,13.96
2023-02-27T00:06:31.918Z,14.09
2023-02-27T00:09:00.437Z,14.11
2023-02-27T00:11:29.212Z,14.23
2023-02-27T00:13:57.700Z,14.14
2023-02-27T00:16:26.025Z,13.70
2023-02-27T00:18:57.229Z,14.00
2023-02-27T00:21:25.938Z,13.87
2023-02-27T00:23:54.373Z,14.02
2023-02-27T00:26:22.648Z,14.06
2023-02-27T00:28:50.903Z,13.61
2023-02-27T00:31:19.271Z,13.36
2023-02-27T00:33:47.568Z,13.25
2023-02-27T00:36:17.382Z,13.91
2023-02-27T00:38:45.706Z,13.73
2023-02-27T00:41:13.975Z,13.72
2023-02-27T00:43:42.270Z,13.83
2023-02-27T00:46:10.540Z,13.92
2023-02-27T00:48:38.842Z,13.71
2023-02-27T00:51:07.365Z,13.25
2023-02-27T00:53:37.123Z,13.25
2023-02-27T00:56:05.893Z,13.18
2023-02-27T00:58:34.107Z,13.35
2023-02-27T01:01:02.486Z,13.01
2023-02-27T01:03:31.133Z,13.40
2023-02-27T01:05:59.470Z,13.04
2023-02-27T01:08:27.826Z,12.72
2023-02-27T01:10:58.079Z,13.05
2023-02-27T01:13:26.529Z,13.11
2023-02-27T01:15:54.888Z,13.00
2023-02-27T01:18:23.289Z,12.87
2023-02-27T01:20:53.788Z,13.04
2023-02-27T01:23:22.094Z,13.07
2023-02-27T01:25:51.118Z,13.14
2023-02-27T01:28:21.318Z,13.21
2023-02-27T01:30:49.542Z,13.11
2023-02-27T01:33:18.002Z,13.05
2023-02-27T01:35:47.075Z,12.95
2023-02-27T01:38:15.518Z,12.95
2023-02-27T01:40:44.246Z,13.13
2023-02-27T01:43:17.044Z,13.06
2023-02-27T01:45:48.961Z,12.97
2023-02-27T01:48:21.293Z,13.12
2023-02-27T01:50:54.598Z,13.04
2023-02-27T01:53:26.050Z,13.20
2023-02-27T01:55:57.249Z,13.21
2023-02-27T01:58:27.097Z,13.07
2023-02-27T02:00:57.199Z,12.95
2023-02-27T02:03:31.353Z,12.81
2023-02-27T02:06:03.108Z,12.90
2023-02-27T02:08:36.649Z,13.08
2023-02-27T02:11:06.023Z,13.12
2023-02-27T02:13:34.711Z,13.02
2023-02-27T02:16:20.338Z,12.90
2023-02-27T02:18:55.241Z,12.31
2023-02-27T02:21:54.452Z,12.58
2023-02-27T02:24:50.271Z,12.96
2023-02-27T02:27:31.914Z,13.15
2023-02-27T02:30:36.926Z,13.24
2023-02-27T02:33:45.693Z,13.12
2023-02-27T02:37:01.492Z,13.11
2023-02-27T02:40:13.997Z,12.91
2023-02-27T02:42:52.331Z,12.85
2023-02-27T02:45:29.318Z,12.79
2023-02-27T02:48:04.611Z,12.72
2023-02-27T02:50:40.855Z,12.60
2023-02-27T02:53:16.749Z,12.55
2023-02-27T02:55:50.766Z,12.69
2023-02-27T02:58:26.245Z,12.81
2023-02-27T03:01:01.377Z,12.68
2023-02-27T03:03:35.748Z,12.62
2023-02-27T03:06:09.857Z,12.54
2023-02-27T03:08:45.015Z,12.63
2023-02-27T03:11:15.177Z,12.74
2023-02-27T03:13:51.454Z,12.73
2023-02-27T03:16:27.699Z,12.74
2023-02-27T03:19:01.389Z,12.82
2023-02-27T03:21:36.498Z,12.99
2023-02-27T03:24:08.995Z,12.85
2023-02-27T03:26:43.812Z,12.81
2023-02-27T03:29:16.390Z,13.23
2023-02-27T03:31:51.187Z,13.07
2023-02-27T03:34:24.581Z,12.79
2023-02-27T03:37:01.866Z,12.73
2023-02-27T03:39:38.476Z,13.10
2023-02-27T03:42:17.048Z,12.47
2023-02-27T03:44:57.339Z,13.14
2023-02-27T03:47:25.933Z,12.97
2023-02-27T03:49:54.437Z,12.35
2023-02-27T03:52:25.071Z,12.10
2023-02-27T03:55:00.002Z,11.93
2023-02-27T03:57:30.531Z,12.79
2023-02-27T03:59:59.537Z,12.82
2023-02-27T04:02:29.138Z,12.65
2023-02-27T04:04:57.398Z,12.21
2023-02-27T04:07:36.189Z,12.45
2023-02-27T04:10:20.600Z,12.61
2023-02-27T04:13:10.625Z,13.00
2023-02-27T04:16:00.959Z,11.65
2023-02-27T04:18:45.083Z,12.95
2023-02-27T04:21:21.959Z,12.83
2023-02-27T04:23:59.179Z,12.69
2023-02-27T04:26:31.920Z,12.51
2023-02-27T04:29:07.540Z,12.13
2023-02-27T04:31:47.028Z,11.98
2023-02-27T04:34:20.147Z,12.49
2023-02-27T04:36:53.844Z,12.46
2023-02-27T04:39:28.642Z,12.17
2023-02-27T04:42:01.678Z,12.56
2023-02-27T04:44:34.972Z,12.49
2023-02-27T04:47:05.854Z,12.63
2023-02-27T04:49:37.679Z,12.26
2023-02-27T04:52:10.949Z,12.67
2023-02-27T04:54:43.674Z,12.86
2023-02-27T04:57:17.507Z,13.07
2023-02-27T04:59:52.474Z,12.10
2023-02-27T05:02:25.174Z,11.89
2023-02-27T05:04:58.231Z,12.24
2023-02-27T05:07:32.411Z,12.39
2023-02-27T05:10:04.336Z,11.68
2023-02-27T05:12:38.980Z,11.28
2023-02-27T05:15:14.244Z,11.89
2023-02-27T05:17:47.904Z,12.06
2023-02-27T05:20:18.675Z,11.95
2023-02-27T05:22:50.321Z,11.47
2023-02-27T05:25:28.403Z,12.16
2023-02-27T05:28:04.159Z,12.54
2023-02-27T05:30:38.307Z,12.28
2023-02-27T05:33:12.493Z,12.58
2023-02-27T05:35:47.919Z,12.33
2023-02-27T05:38:19.741Z,12.35
2023-02-27T05:40:52.624Z,12.69
2023-02-27T05:43:26.406Z,12.77
2023-02-27T05:46:01.082Z,12.75
2023-02-27T05:48:33.731Z,12.45
2023-02-27T05:51:03.746Z,12.14
2023-02-27T05:53:36.404Z,11.75
2023-02-27T05:56:07.886Z,12.44
2023-02-27T05:58:41.855Z,12.30
2023-02-27T06:01:13.229Z,12.68
2023-02-27T06:03:42.962Z,12.90
2023-02-27T06:06:16.321Z,13.10
2023-02-27T06:08:44.952Z,13.27
2023-02-27T06:11:13.395Z,13.53
2023-02-27T06:13:42.259Z,13.59
2023-02-27T06:16:13.885Z,13.54
2023-02-27T06:18:42.229Z,13.86
2023-02-27T06:21:10.466Z,14.17
2023-02-27T06:23:38.774Z,14.21
2023-02-27T06:26:07.258Z,14.42
2023-02-27T06:28:35.544Z,14.46
2023-02-27T06:31:03.892Z,14.78
2023-02-27T06:33:33.661Z,14.59
2023-02-27T06:36:02.028Z,14.32
2023-02-27T06:38:30.432Z,14.10
2023-02-27T06:40:59.016Z,14.69
2023-02-27T06:43:27.348Z,14.88
2023-02-27T06:45:56.187Z,14.86
2023-02-27T06:48:24.464Z,15.16
2023-02-27T06:50:56.434Z,15.48
2023-02-27T06:53:26.231Z,15.44
2023-02-27T06:55:54.673Z,15.46
2023-02-27T06:58:24.870Z,15.08
2023-02-27T07:00:53.201Z,15.83
2023-02-27T07:03:21.523Z,15.77
2023-02-27T07:05:49.763Z,15.16
2023-02-27T07:08:19.582Z,15.85
2023-02-27T07:10:49.269Z,15.33
2023-02-27T07:13:19.697Z,15.60
2023-02-27T07:15:48.545Z,15.76
2023-02-27T07:18:16.893Z,15.91
2023-02-27T07:20:45.389Z,15.92
2023-02-27T07:23:13.693Z,15.76
2023-02-27T07:25:43.311Z,14.97
2023-02-27T07:28:11.635Z,14.90
2023-02-27T07:30:39.997Z,14.98
2023-02-27T07:33:08.506Z,14.80
2023-02-27T07:35:36.845Z,14.59
2023-02-27T07:38:05.424Z,14.85
2023-02-27T07:40:33.729Z,14.44
2023-02-27T07:43:03.486Z,14.46
2023-02-27T07:45:31.886Z,13.96
2023-02-27T07:48:00.188Z,14.15
2023-02-27T07:50:28.552Z,14.41
2023-02-27T07:52:56.816Z,14.16
2023-02-27T07:55:25.038Z,14.42
2023-02-27T07:57:53.308Z,14.15
2023-02-27T08:00:23.596Z,13.96
2023-02-27T08:02:52.031Z,14.29
2023-02-27T08:05:20.726Z,14.39
2023-02-27T08:07:49.024Z,14.88
2023-02-27T08:10:17.444Z,14.66
2023-02-27T08:12:46.051Z,14.83
2023-02-27T08:15:14.702Z,15.01
2023-02-27T08:17:45.922Z,15.03
2023-02-27T08:20:15.092Z,15.33
2023-02-27T08:22:43.516Z,15.77
2023-02-27T08:25:12.533Z,15.95
2023-02-27T08:27:41.106Z,16.12
2023-02-27T08:30:11.474Z,16.16
2023-02-27T08:32:40.084Z,16.08
2023-02-27T08:35:10.997Z,16.18
2023-02-27T08:37:39.278Z,15.68
2023-02-27T08:40:11.210Z,15.99
2023-02-27T08:42:39.811Z,15.92
2023-02-27T08:45:09.433Z,16.31
2023-02-27T08:47:37.730Z,16.07
2023-02-27T08:50:07.328Z,16.07
2023-02-27T08:52:37.023Z,16.29
2023-02-27T08:55:06.157Z,16.08
2023-02-27T08:57:34.717Z,16.43
2023-02-27T09:00:06.219Z,16.78
2023-02-27T09:02:35.037Z,16.66
2023-02-27T09:05:03.432Z,16.72
2023-02-27T09:07:31.808Z,17.46
2023-02-27T09:10:01.665Z,17.55
2023-02-27T09:12:29.900Z,18.24
2023-02-27T09:14:58.238Z,18.80
2023-02-27T09:17:26.686Z,19.10
2023-02-27T09:19:57.254Z,18.19
2023-02-27T09:22:25.771Z,17.97
2023-02-27T09:24:54.054Z,18.33
2023-02-27T09:27:24.572Z,17.76
2023-02-27T09:29:56.449Z,17.49
2023-02-27T09:32:25.239Z,17.55
2023-02-27T09:34:53.715Z,17.83
2023-02-27T09:37:21.992Z,17.80
2023-02-27T09:39:50.398Z,17.78
2023-02-27T09:42:21.184Z,17.62
2023-02-27T09:44:53.115Z,17.62
2023-02-27T09:47:26.906Z,17.60
2023-02-27T09:50:02.054Z,17.26
2023-02-27T09:52:32.580Z,17.21
2023-02-27T09:55:01.063Z,17.19
2023-02-27T09:57:42.387Z,16.87
2023-02-27T10:00:30.985Z,17.52
2023-02-27T10:03:14.547Z,17.55
2023-02-27T10:05:50.060Z,17.41
2023-02-27T10:08:24.548Z,18.55
2023-02-27T10:11:00.495Z,19.17
2023-02-27T10:13:45.076Z,19.10
2023-02-27T10:16:19.341Z,18.56
2023-02-27T10:18:55.055Z,18.40
2023-02-27T10:21:27.450Z,18.12
2023-02-27T10:24:00.737Z,17.98
2023-02-27T10:26:31.252Z,17.78
2023-02-27T10:29:01.498Z,17.57
2023-02-27T10:31:34.855Z,18.01
2023-02-27T10:34:03.724Z,17.90
2023-02-27T10:36:34.632Z,18.61
2023-02-27T10:39:08.434Z,17.74
2023-02-27T10:41:37.909Z,17.95
2023-02-27T10:44:07.536Z,18.83
2023-02-27T10:46:39.063Z,19.38
2023-02-27T10:49:18.910Z,20.13
2023-02-27T10:51:48.788Z,20.56
2023-02-27T10:54:22.109Z,20.75
2023-02-27T10:56:52.723Z,20.50
2023-02-27T10:59:24.052Z,20.06
2023-02-27T11:01:56.395Z,20.33
2023-02-27T11:04:32.819Z,20.15
2023-02-27T11:07:04.797Z,19.80
2023-02-27T11:09:34.513Z,19.47
2023-02-27T11:12:19.310Z,19.59
2023-02-27T11:14:52.378Z,19.59
2023-02-27T11:17:30.546Z,19.57
2023-02-27T11:20:00.511Z,19.26
2023-02-27T11:22:30.487Z,20.27
2023-02-27T11:25:23.937Z,20.84
2023-02-27T11:27:52.700Z,21.75
2023-02-27T11:30:26.117Z,21.05
2023-02-27T11:32:58.058Z,22.03
2023-02-27T11:35:30.222Z,22.20
2023-02-27T11:38:01.492Z,22.51
2023-02-27T11:40:33.075Z,22.22
2023-02-27T11:43:06.285Z,21.48
2023-02-27T11:46:04.667Z,21.14
2023-02-27T11:48:31.328Z,20.02
2023-02-27T11:51:33.254Z,19.81
2023-02-27T11:54:25.070Z,19.84
2023-02-27T11:56:55.906Z,20.13
2023-02-27T11:59:34.047Z,19.75
2023-02-27T12:02:07.513Z,19.49
2023-02-27T12:04:46.358Z,19.97
2023-02-27T12:07:21.979Z,19.78
2023-02-27T12:09:57.826Z,20.52
2023-02-27T12:12:31.841Z,20.04
2023-02-27T12:15:11.222Z,19.68
2023-02-27T12:17:45.922Z,19.71
2023-02-27T12:20:29.343Z,19.03
2023-02-27T12:22:57.929Z,19.42
2023-02-27T12:25:38.396Z,19.27
2023-02-27T12:28:28.512Z,19.30
2023-02-27T12:31:08.781Z,19.19
2023-02-27T12:33:43.292Z,19.20
2023-02-27T12:36:14.724Z,18.32
2023-02-27T12:38:43.845Z,18.44
2023-02-27T12:41:37.998Z,18.68
2023-02-27T12:44:33.530Z,18.25
2023-02-27T12:47:14.100Z,18.46
2023-02-27T12:49:50.114Z,18.32
2023-02-27T12:52:27.752Z,18.35
2023-02-27T12:55:03.422Z,18.15
2023-02-27T12:57:50.755Z,18.17
2023-02-27T13:00:21.627Z,18.37
2023-02-27T13:03:06.521Z,18.13
2023-02-27T13:05:44.180Z,17.84
2023-02-27T13:08:29.495Z,18.53
2023-02-27T13:11:03.085Z,18.67
2023-02-27T13:13:37.666Z,18.98
2023-02-27T13:16:12.303Z,18.74
2023-02-27T13:18:46.701Z,18.95
2023-02-27T13:21:22.508Z,18.09
2023-02-27T13:24:06.996Z,17.50
2023-02-27T13:26:40.565Z,17.33
2023-02-27T13:29:14.407Z,17.33
2023-02-27T13:31:50.834Z,17.23
2023-02-27T13:34:27.082Z,16.88
2023-02-27T13:37:00.294Z,16.65
2023-02-27T13:39:56.118Z,16.93
2023-02-27T13:42:59.480Z,17.60
2023-02-27T13:45:57.004Z,17.69
2023-02-27T13:48:48.348Z,16.99
2023-02-27T13:51:49.844Z,17.56
2023-02-27T13:54:29.987Z,17.64
2023-02-27T13:57:21.518Z,18.00
2023-02-27T13:59:56.022Z,17.57
2023-02-27T14:02:36.611Z,16.73
2023-02-27T14:05:08.928Z,16.92
2023-02-27T14:07:55.284Z,16.65
2023-02-27T14:10:26.331Z,16.60
2023-02-27T14:12:59.054Z,16.65
2023-02-27T14:16:00.615Z,16.81
2023-02-27T14:18:51.458Z,16.42
2023-02-27T14:21:55.919Z,16.36
2023-02-27T14:24:33.888Z,16.01
2023-02-27T14:27:03.707Z,16.12
2023-02-27T14:29:36.447Z,15.53
2023-02-27T14:32:08.794Z,15.30
2023-02-27T14:34:39.521Z,15.41
2023-02-27T14:37:15.167Z,15.21
2023-02-27T14:39:43.534Z,14.97
2023-02-27T14:42:39.776Z,14.69
2023-02-27T14:45:20.087Z,14.44
2023-02-27T14:47:49.117Z,14.64
2023-02-27T14:50:35.256Z,14.72
2023-02-27T14:53:04.296Z,14.13
2023-02-27T14:55:33.474Z,14.28
2023-02-27T14:58:09.727Z,14.43
2023-02-27T15:00:42.449Z,14.23
2023-02-27T15:03:22.763Z,13.91
2023-02-27T15:05:52.990Z,14.20
2023-02-27T15:08:24.028Z,13.61
2023-02-27T15:10:54.284Z,13.15
2023-02-27T15:13:29.642Z,13.54
2023-02-27T15:16:21.770Z,13.70
2023-02-27T15:18:51.278Z,13.36
2023-02-27T15:21:20.955Z,13.18
2023-02-27T15:23:56.313Z,13.14
2023-02-27T15:26:25.846Z,13.66
2023-02-27T15:28:54.268Z,14.16
2023-02-27T15:31:29.555Z,14.13
2023-02-27T15:33:59.698Z,14.49
2023-02-27T15:36:31.179Z,14.72
2023-02-27T15:39:19.140Z,14.40
2023-02-27T15:41:51.759Z,14.27
2023-02-27T15:44:24.910Z,14.24
2023-02-27T15:46:55.594Z,14.08
2023-02-27T15:49:26.062Z,14.03
2023-02-27T15:52:02.239Z,14.09
2023-02-27T15:54:35.061Z,14.02
2023-02-27T15:57:06.936Z,13.21
2023-02-27T15:59:38.270Z,13.42
2023-02-27T16:02:17.525Z,13.22
2023-02-27T16:04:47.701Z,13.27
2023-02-27T16:07:20.792Z,13.72
2023-02-27T16:09:52.067Z,13.50
2023-02-27T16:12:29.123Z,13.38
2023-02-27T16:15:21.272Z,13.35
2023-02-27T16:18:03.152Z,13.33
2023-02-27T16:20:43.919Z,13.35
2023-02-27T16:23:21.732Z,13.34
2023-02-27T16:26:08.358Z,13.64
2023-02-27T16:28:43.187Z,13.40
2023-02-27T16:31:25.022Z,12.91
2023-02-27T16:33:56.572Z,13.23
2023-02-27T16:36:27.087Z,13.56
2023-02-27T16:38:56.212Z,13.39
2023-02-27T16:41:26.174Z,13.49
2023-02-27T16:43:55.040Z,13.45
2023-02-27T16:46:23.858Z,13.23
2023-02-27T16:48:56.120Z,13.74
2023-02-27T16:51:26.288Z,13.38
2023-02-27T16:53:55.772Z,13.36
2023-02-27T16:56:37.282Z,13.48
2023-02-27T16:59:06.560Z,13.54
2023-02-27T17:01:34.967Z,13.63
2023-02-27T17:04:10.840Z,13.76
2023-02-27T17:06:44.849Z,13.89
2023-02-27T17:09:13.255Z,14.15
2023-02-27T17:11:41.599Z,13.97
2023-02-27T17:14:09.921Z,13.64
2023-02-27T17:16:38.250Z,13.06
2023-02-27T17:19:08.408Z,12.81
2023-02-27T17:21:36.723Z,13.36
2023-02-27T17:24:06.283Z,13.68
2023-02-27T17:26:34.794Z,13.45
2023-02-27T17:29:03.898Z,13.54
2023-02-27T17:31:32.398Z,13.59
2023-02-27T17:34:03.194Z,13.28
2023-02-27T17:36:32.808Z,13.70
2023-02-27T17:39:01.998Z,13.76
2023-02-27T17:41:30.921Z,13.50
2023-02-27T17:44:01.898Z,13.21
2023-02-27T17:46:32.141Z,13.19
2023-02-27T17:49:01.396Z,12.97
2023-02-27T17:51:30.985Z,13.11
2023-02-27T17:54:02.196Z,13.07
2023-02-27T17:56:30.775Z,13.40
2023-02-27T17:58:59.478Z,12.91
2023-02-27T18:01:28.108Z,12.88
2023-02-27T18:03:57.287Z,12.12
2023-02-27T18:06:25.969Z,12.84
2023-02-27T18:08:54.457Z,13.01
2023-02-27T18:11:24.865Z,13.38
2023-02-27T18:13:53.350Z,13.22
2023-02-27T18:16:23.140Z,12.97
2023-02-27T18:18:51.607Z,13.13
2023-02-27T18:21:22.921Z,13.50
2023-02-27T18:23:52.933Z,13.36
2023-02-27T18:26:30.436Z,13.49
2023-02-27T18:29:00.755Z,13.12
2023-02-27T18:31:31.372Z,13.14
2023-02-27T18:33:59.680Z,13.57
2023-02-27T18:36:28.536Z,13.09
2023-02-27T18:38:57.018Z,13.52
2023-02-27T18:41:27.063Z,13.50
2023-02-27T18:43:55.590Z,12.92
2023-02-27T18:46:24.046Z,13.54
2023-02-27T18:48:52.634Z,13.68
2023-02-27T18:51:21.038Z,13.21
2023-02-27T18:53:53.965Z,13.27
2023-02-27T18:56:24.870Z,13.50
2023-02-27T18:58:57.596Z,13.34
2023-02-27T19:01:28.396Z,13.44
2023-02-27T19:04:03.554Z,13.37
2023-02-27T19:06:32.425Z,13.57
2023-02-27T19:09:00.800Z,13.22
2023-02-27T19:11:33.542Z,13.49
2023-02-27T19:14:03.978Z,13.53
2023-02-27T19:16:32.758Z,13.79
2023-02-27T19:19:03.254Z,13.51
2023-02-27T19:21:32.156Z,13.62
2023-02-27T19:24:00.835Z,13.59
2023-02-27T19:26:30.169Z,13.13
2023-02-27T19:28:58.651Z,13.05
2023-02-27T19:31:28.706Z,12.96
2023-02-27T19:33:57.079Z,13.14
2023-02-27T19:36:27.569Z,13.10
2023-02-27T19:38:56.901Z,12.76
2023-02-27T19:41:25.697Z,13.09
2023-02-27T19:43:54.614Z,13.06
2023-02-27T19:46:26.322Z,13.14
2023-02-27T19:48:59.233Z,12.79
2023-02-27T19:51:27.887Z,12.69
2023-02-27T19:53:56.428Z,12.46
2023-02-27T19:56:26.155Z,12.59
2023-02-27T19:58:55.194Z,12.59
2023-02-27T20:01:25.973Z,12.96
2023-02-27T20:03:56.603Z,13.21
2023-02-27T20:06:26.597Z,13.12
2023-02-27T20:08:55.771Z,12.61
2023-02-27T20:11:24.188Z,12.47
2023-02-27T20:13:53.394Z,12.35
2023-02-27T20:16:24.184Z,12.50
2023-02-27T20:18:53.331Z,12.75
2023-02-27T20:21:24.996Z,12.74
2023-02-27T20:23:53.954Z,12.03
2023-02-27T20:26:24.739Z,12.13
2023-02-27T20:28:54.745Z,12.27
2023-02-27T20:31:25.849Z,12.29
2023-02-27T20:33:54.569Z,11.99
2023-02-27T20:36:24.871Z,12.09
2023-02-27T20:38:53.213Z,11.87
2023-02-27T20:41:23.551Z,11.45
2023-02-27T20:43:51.816Z,12.39
2023-02-27T20:46:22.069Z,12.65
2023-02-27T20:48:51.128Z,12.73
2023-02-27T20:51:21.294Z,12.34
2023-02-27T20:53:52.778Z,12.52
2023-02-27T20:56:22.646Z,12.76
2023-02-27T20:58:50.922Z,12.58
2023-02-27T21:01:19.963Z,11.99
2023-02-27T21:03:50.520Z,11.41
2023-02-27T21:06:19.723Z,11.52
2023-02-27T21:08:52.868Z,11.23
2023-02-27T21:11:24.594Z,11.76
2023-02-27T21:13:52.897Z,12.14
2023-02-27T21:16:22.281Z,12.26
2023-02-27T21:18:51.613Z,12.19
2023-02-27T21:21:24.134Z,12.53
2023-02-27T21:23:54.366Z,12.32
2023-02-27T21:26:25.182Z,12.57
2023-02-27T21:28:54.928Z,12.52
2023-02-27T21:31:25.702Z,12.46
2023-02-27T21:33:56.569Z,12.07
2023-02-27T21:36:29.902Z,11.30
2023-02-27T21:39:00.882Z,11.99
2023-02-27T21:41:30.887Z,11.65
2023-02-27T21:44:00.438Z,11.85
2023-02-27T21:46:29.779Z,11.57
2023-02-27T21:48:58.344Z,10.33
2023-02-27T21:51:39.629Z,11.26
2023-02-27T21:54:13.032Z,11.51
2023-02-27T21:56:42.321Z,11.69
2023-02-27T21:59:10.812Z,12.23
2023-02-27T22:01:40.316Z,11.94
2023-02-27T22:04:09.061Z,11.77
2023-02-27T22:06:37.398Z,11.36
2023-02-27T22:09:08.083Z,11.03
2023-02-27T22:11:37.927Z,11.39
2023-02-27T22:14:08.348Z,11.07
2023-02-27T22:16:36.744Z,10.85
2023-02-27T22:19:07.744Z,11.58
2023-02-27T22:21:37.604Z,11.35
2023-02-27T22:24:06.487Z,11.28
2023-02-27T22:26:35.403Z,11.17
2023-02-27T22:29:06.514Z,10.68
2023-02-27T22:31:37.913Z,11.81
2023-02-27T22:34:08.081Z,11.61
2023-02-27T22:36:37.689Z,11.42
2023-02-27T22:39:07.691Z,11.79
2023-02-27T22:41:39.617Z,11.85
2023-02-27T22:44:10.810Z,11.60
2023-02-27T22:46:41.295Z,11.39
2023-02-27T22:49:12.737Z,11.94
2023-02-27T22:51:41.038Z,12.20
2023-02-27T22:54:10.293Z,11.71
2023-02-27T22:56:39.085Z,11.71
2023-02-27T22:59:09.321Z,11.73
2023-02-27T23:01:39.096Z,11.56
2023-02-27T23:04:11.513Z,11.63
2023-02-27T23:06:42.072Z,12.19
2023-02-27T23:09:13.678Z,12.19
2023-02-27T23:11:42.174Z,11.23
2023-02-27T23:14:13.425Z,10.84
2023-02-27T23:16:45.699Z,10.64
2023-02-27T23:19:16.275Z,10.63
2023-02-27T23:21:44.717Z,10.54
2023-02-27T23:24:15.051Z,10.81
2023-02-27T23:26:45.736Z,11.33
2023-02-27T23:29:16.046Z,11.78
2023-02-27T23:31:44.683Z,11.38
2023-02-27T23:34:13.022Z,11.46
2023-02-27T23:36:41.587Z,11.62
2023-02-27T23:39:10.139Z,11.73
2023-02-27T23:41:38.447Z,11.85
2023-02-27T23:44:06.912Z,11.94
2023-02-27T23:46:36.640Z,11.45
2023-02-27T23:49:04.952Z,11.48
2023-02-27T23:51:33.792Z,11.70
2023-02-27T23:54:02.308Z,11.84
2023-02-27T23:56:31.881Z,11.65
2023-02-27T23:59:02.369Z,11.82
